Forside
METAR-TAF:

METAR-TAF

Lufthavne :

Oostende, Belgien

Breddekreds: 51-12N, længdekreds: 002-52E, højde: 4 m

Aktuelle vejr

Denne rapport blev lavet for 34 minutter siden, kl. 01:50 UTC
Vind 3 kt fra nordnordvest, varierende mellem nordvest og nordnordøst
Temperatur 12°C
Fugtighed 94%
Tryk 1033 hPa
Sigt: 8000 m
Brudte skyer i en højde af 4300 ft

METAR: EBOS 250150Z 34003KT 310V020 8000 BKN043 12/11 Q1033 NOSIG

Tid: 04:24 (02:24 UTC)

Vejrudsigter

Denne rapport blev lavet for 3 timer og 14 minutter siden, kl. 23:10 UTC
Foreløbig gælder fra 25 på 00 UTC til 26 på 06 UTC
Vind 7 kt fra nordnordvest
Sigt 10 km eller mere
Nogle få skyer i en højde af 2800 ft
Spredte skyer i en højde af 4800 ft
Sandsynlighed 40%
fra 26 på 03 UTC til 26 på 06 UTC
Sigt: 2500 m
dis

TAF: EBOS 242310Z 2500/2606 34007KT 9999 FEW028 SCT048 PROB40 2603/2606 2500 BR

Vejrobservationer og prognoser fra mere end 4000 lufthavne (METAR og TAF).

De gule og røde prikker repræsenterer de meteorologiske stationer.

Flyt musen over at se navnet på stationen.

Så klik over at se vejr observationer og prognoser.

At skifte det kort: Klik på de grønne knapper med et sort kors for at zoome ind; på den grønne knap med en bindestreg for at zoome ud; eller på de grønne pile for tilstødende kort.


METAR-TAF: